Terminal Aerodrome Forecast
Issued by NWS Pueblo, CO

Home | Current Version | Previous Version | Text Only | Print | Product List | Glossary On
Versions: 1 2 3 4 5 6 7 8 9 10 11 12 13 14 15 16 17 18 19 20 21 22 23 24 25
678
FTUS45 KPUB 300037 CCA
TAFALS
TAF COR
KALS 300037Z 3000/3024 30008KT P6SM SCT120 BKN250
     FM300300 VRB06KT P6SM SCT100 BKN200
     FM301800 18010KT P6SM SCT080 BKN120=

USA.gov is the U.S. government's official web portal to all federal, state and local government web resources and services.